createdAt,value
2022-10-11T00:00:53.533Z,101453.19
2022-10-11T00:03:22.006Z,101444.66
2022-10-11T00:05:49.948Z,101439.13
2022-10-11T00:08:18.475Z,101452.34
2022-10-11T00:10:57.783Z,101439.47
2022-10-11T00:13:25.777Z,101437.78
2022-10-11T00:15:53.713Z,101431.88
2022-10-11T00:18:21.764Z,101436.28
2022-10-11T00:20:50.401Z,101427.69
2022-10-11T00:23:18.760Z,101423.16
2022-10-11T00:25:57.961Z,101424.25
2022-10-11T00:28:26.010Z,101428.09
2022-10-11T00:30:54.114Z,101425.69
2022-10-11T00:33:22.060Z,101420.31
2022-10-11T00:35:50.080Z,101418.72
2022-10-11T00:38:18.666Z,101414.59
2022-10-11T00:40:47.929Z,101416.63
2022-10-11T00:43:17.842Z,101414.63
2022-10-11T00:46:01.795Z,101399.81
2022-10-11T00:48:37.525Z,101398.94
2022-10-11T00:51:11.400Z,101407.44
2022-10-11T00:53:39.571Z,101404.06
2022-10-11T00:56:15.732Z,101406.31
2022-10-11T00:58:44.193Z,101408.19
2022-10-11T01:01:12.363Z,101400.81
2022-10-11T01:03:41.847Z,101375.19
2022-10-11T01:06:10.277Z,101392.22
2022-10-11T01:08:39.555Z,101389.44
2022-10-11T01:11:13.412Z,101382.22
2022-10-11T01:13:53.838Z,101385.22
2022-10-11T01:16:30.064Z,101379.25
2022-10-11T01:19:22.562Z,101369.03
2022-10-11T01:21:58.818Z,101378.16
2022-10-11T01:24:52.128Z,101375.41
2022-10-11T01:27:45.463Z,101370.31
2022-10-11T01:30:36.325Z,101360.19
2022-10-11T01:33:25.906Z,101373.47
2022-10-11T01:36:05.158Z,101376.16
2022-10-11T01:38:38.963Z,101375.25
2022-10-11T01:41:11.299Z,101376.09
2022-10-11T01:43:42.081Z,101372.72
2022-10-11T01:46:12.214Z,101368.94
2022-10-11T01:48:59.052Z,101349.53
2022-10-11T01:51:32.316Z,101374.78
2022-10-11T01:54:22.762Z,101363.19
2022-10-11T01:57:09.402Z,101366.84
2022-10-11T01:59:49.226Z,101364.13
2022-10-11T02:02:32.096Z,101365.56
2022-10-11T02:05:07.210Z,101364.78
2022-10-11T02:07:41.940Z,101357.91
2022-10-11T02:10:16.683Z,101369.78
2022-10-11T02:12:48.897Z,101367.34
2022-10-11T02:15:19.509Z,101359.16
2022-10-11T02:17:53.849Z,101368.97
2022-10-11T02:20:26.025Z,101365.44
2022-10-11T02:23:00.385Z,101358.00
2022-10-11T02:25:31.777Z,101349.59
2022-10-11T02:28:03.661Z,101352.53
2022-10-11T02:30:32.297Z,101326.63
2022-10-11T02:33:05.129Z,101352.06
2022-10-11T02:35:38.281Z,101346.59
2022-10-11T02:38:14.744Z,101343.56
2022-10-11T02:40:47.921Z,101343.75
2022-10-11T02:43:24.042Z,101338.34
2022-10-11T02:45:55.979Z,101342.38
2022-10-11T02:48:27.590Z,101342.91
2022-10-11T02:50:56.781Z,101339.13
2022-10-11T02:53:26.245Z,101341.66
2022-10-11T02:55:55.957Z,101347.09
2022-10-11T02:58:25.442Z,101340.03
2022-10-11T03:00:53.630Z,101344.63
2022-10-11T03:03:21.916Z,101336.66
2022-10-11T03:05:51.201Z,101338.78
2022-10-11T03:08:19.246Z,101334.97
2022-10-11T03:10:47.230Z,101330.13
2022-10-11T03:13:18.243Z,101326.66
2022-10-11T03:16:00.725Z,101320.47
2022-10-11T03:18:30.911Z,101331.13
2022-10-11T03:21:00.218Z,101334.81
2022-10-11T03:23:28.177Z,101332.41
2022-10-11T03:25:56.088Z,101332.03
2022-10-11T03:28:24.023Z,101334.66
2022-10-11T03:30:52.554Z,101333.00
2022-10-11T03:33:20.995Z,101341.06
2022-10-11T03:35:50.145Z,101336.00
2022-10-11T03:38:22.138Z,101335.25
2022-10-11T03:40:50.172Z,101337.69
2022-10-11T03:43:18.410Z,101337.69
2022-10-11T03:45:46.373Z,101335.09
2022-10-11T03:48:14.408Z,101302.41
2022-10-11T03:50:42.338Z,101353.47
2022-10-11T03:53:10.463Z,101337.38
2022-10-11T03:55:41.505Z,101337.41
2022-10-11T03:58:09.842Z,101341.38
2022-10-11T04:00:38.625Z,101334.50
2022-10-11T04:03:06.635Z,101333.22
2022-10-11T04:05:34.553Z,101327.44
2022-10-11T04:08:02.491Z,101332.44
2022-10-11T04:10:31.575Z,101334.22
2022-10-11T04:13:01.033Z,101328.69
2022-10-11T04:15:28.965Z,101336.09
2022-10-11T04:17:56.884Z,101320.56
2022-10-11T04:20:24.982Z,101333.50
2022-10-11T04:22:52.881Z,101334.91
2022-10-11T04:25:20.798Z,101329.53
2022-10-11T04:27:48.743Z,101332.72
2022-10-11T04:30:18.309Z,101339.50
2022-10-11T04:32:46.272Z,101328.06
2022-10-11T04:35:14.447Z,101337.59
2022-10-11T04:37:42.371Z,101326.16
2022-10-11T04:40:11.620Z,101326.66
2022-10-11T04:42:39.555Z,101322.69
2022-10-11T04:45:09.490Z,101321.50
2022-10-11T04:47:40.521Z,101331.75
2022-10-11T04:50:08.867Z,101324.38
2022-10-11T04:52:36.833Z,101337.13
2022-10-11T04:55:05.143Z,101340.94
2022-10-11T04:57:33.063Z,101337.66
2022-10-11T05:00:00.993Z,101333.22
2022-10-11T05:02:28.993Z,101341.88
2022-10-11T05:04:58.597Z,101338.25
2022-10-11T05:07:26.519Z,101336.06
2022-10-11T05:09:54.702Z,101346.03
2022-10-11T05:12:22.666Z,101337.47
2022-10-11T05:14:50.612Z,101343.81
2022-10-11T05:17:18.670Z,101345.25
2022-10-11T05:19:46.608Z,101348.53
2022-10-11T05:22:15.902Z,101352.38
2022-10-11T05:24:44.036Z,101353.56
2022-10-11T05:27:11.941Z,101350.56
2022-10-11T05:29:39.878Z,101348.94
2022-10-11T05:32:07.895Z,101348.72
2022-10-11T05:34:35.818Z,101347.81
2022-10-11T13:10:34.210Z,101212.59
2022-10-11T13:13:04.666Z,101209.56
2022-10-11T13:15:33.213Z,101204.47
2022-10-11T13:18:01.949Z,101202.09
2022-10-11T13:20:32.406Z,101194.44
2022-10-11T13:23:00.686Z,101209.94
2022-10-11T13:25:37.936Z,101211.31
2022-10-11T13:28:10.292Z,101205.63
2022-10-11T13:30:40.141Z,101211.28
2022-10-11T13:33:14.954Z,101190.50
2022-10-11T13:35:43.122Z,101208.00
2022-10-11T13:38:22.591Z,101208.19
2022-10-11T13:40:52.455Z,101199.59
2022-10-11T13:43:24.780Z,101203.06
2022-10-11T13:45:54.024Z,101189.19
2022-10-11T13:48:22.669Z,101199.69
2022-10-11T13:51:09.366Z,101202.44
2022-10-11T13:53:37.439Z,101199.91
2022-10-11T13:56:09.754Z,101208.13
2022-10-11T13:58:40.750Z,101202.41
2022-10-11T14:01:20.196Z,101193.91
2022-10-11T14:03:53.344Z,101192.25
2022-10-11T14:06:21.645Z,101195.81
2022-10-11T14:08:53.187Z,101195.28
2022-10-11T14:11:36.256Z,101197.09
2022-10-11T14:14:37.370Z,101189.75
2022-10-11T14:17:07.502Z,101191.00
2022-10-11T14:19:35.783Z,101186.84
2022-10-11T14:22:07.486Z,101193.63
2022-10-11T14:24:35.695Z,101195.88
2022-10-11T14:27:07.482Z,101192.94
2022-10-11T14:29:39.206Z,101185.31
2022-10-11T14:32:09.810Z,101196.69
2022-10-11T14:34:38.481Z,101179.88
2022-10-11T14:37:06.867Z,101186.66
2022-10-11T14:39:35.189Z,101176.91
2022-10-11T14:42:05.428Z,101184.97
2022-10-11T14:44:33.476Z,101182.31
2022-10-11T14:47:02.708Z,101186.34
2022-10-11T14:49:31.913Z,101143.28
2022-10-11T14:52:00.665Z,101184.41
2022-10-11T14:54:30.502Z,101184.09
2022-10-11T14:57:01.015Z,101171.22
2022-10-11T14:59:34.973Z,101184.91
2022-10-11T15:02:03.465Z,101170.19
2022-10-11T15:04:31.520Z,101180.59
2022-10-11T15:06:59.701Z,101184.50
2022-10-11T15:09:27.960Z,101187.97
2022-10-11T15:11:56.401Z,101186.81
2022-10-11T15:14:25.342Z,101187.94
2022-10-11T15:16:56.313Z,101182.81
2022-10-11T15:19:26.671Z,101195.84
2022-10-11T15:21:54.781Z,101191.78
2022-10-11T15:24:23.206Z,101183.88
2022-10-11T15:26:51.495Z,101195.38
2022-10-11T15:29:22.061Z,101193.09
2022-10-11T15:31:51.144Z,101197.81
2022-10-11T15:34:20.666Z,101193.06
2022-10-11T15:36:50.097Z,101193.44
2022-10-11T15:39:26.353Z,101193.06
2022-10-11T15:41:55.165Z,101201.81
2022-10-11T15:44:23.443Z,101192.63
2022-10-11T15:46:51.647Z,101204.84
2022-10-11T15:49:21.149Z,101210.47
2022-10-11T15:51:49.211Z,101211.69
2022-10-11T15:54:17.276Z,101210.66
2022-10-11T15:56:45.567Z,101213.56
2022-10-11T15:59:13.938Z,101202.84
2022-10-11T16:01:42.173Z,101209.63
2022-10-11T16:04:11.207Z,101218.06
2022-10-11T16:06:41.192Z,101218.19
2022-10-11T16:09:09.229Z,101224.53
2022-10-11T16:11:37.300Z,101222.25
2022-10-11T16:14:06.168Z,101222.53
2022-10-11T16:16:34.242Z,101220.28
2022-10-11T16:19:02.290Z,101231.88
2022-10-11T16:21:30.334Z,101227.72
2022-10-11T16:23:59.826Z,101224.72
2022-10-11T16:26:28.226Z,101225.97
2022-10-11T16:28:57.028Z,101218.69
2022-10-11T16:31:25.301Z,101226.72
2022-10-11T16:33:54.194Z,101227.91
2022-10-11T16:36:48.890Z,101235.06
2022-10-11T16:39:20.370Z,101227.94
2022-10-11T16:41:49.657Z,101230.44
2022-10-11T16:44:19.781Z,101238.44
2022-10-11T16:46:50.176Z,101237.94
2022-10-11T16:49:20.834Z,101237.25
2022-10-11T16:51:49.533Z,101244.41
2022-10-11T16:54:20.750Z,101246.31
2022-10-11T16:56:49.613Z,101250.13
2022-10-11T16:59:19.142Z,101240.72
2022-10-11T17:01:47.841Z,101243.81
2022-10-11T17:04:17.014Z,101247.91
2022-10-11T17:06:45.667Z,101244.44
2022-10-11T17:09:14.808Z,101238.47
2022-10-11T17:11:44.978Z,101242.88
2022-10-11T17:14:14.085Z,101242.03
2022-10-11T17:16:42.530Z,101238.00
2022-10-11T17:19:12.958Z,101244.94
2022-10-11T17:21:42.120Z,101239.31
2022-10-11T17:24:10.384Z,101240.16
2022-10-11T17:26:38.601Z,101234.44
2022-10-11T17:29:08.327Z,101234.53
2022-10-11T17:31:38.579Z,101237.53
2022-10-11T17:34:06.665Z,101239.41
2022-10-11T17:36:35.665Z,101238.59
2022-10-11T17:39:07.820Z,101238.00
2022-10-11T17:41:36.173Z,101241.59
2022-10-11T17:44:04.856Z,101240.25
2022-10-11T17:46:34.421Z,101247.06
2022-10-11T17:49:04.911Z,101246.47
2022-10-11T17:51:33.851Z,101248.50
2022-10-11T17:54:02.113Z,101247.78
2022-10-11T17:56:36.609Z,101248.72
2022-10-11T17:59:05.957Z,101257.66
2022-10-11T18:01:36.076Z,101241.22
2022-10-11T18:04:06.180Z,101251.84
2022-10-11T18:06:39.957Z,101256.25
2022-10-11T18:09:08.893Z,101262.44
2022-10-11T18:11:37.054Z,101265.41
2022-10-11T18:14:05.757Z,101261.13
2022-10-11T18:16:36.544Z,101253.72
2022-10-11T18:19:06.585Z,101263.84
2022-10-11T18:21:35.265Z,101251.81
2022-10-11T18:24:05.080Z,101255.63
2022-10-11T18:26:33.477Z,101262.03
2022-10-11T18:29:02.174Z,101260.13
2022-10-11T18:31:34.017Z,101260.13
2022-10-11T18:34:04.526Z,101257.63
2022-10-11T18:36:33.426Z,101257.78
2022-10-11T18:39:03.214Z,101260.91
2022-10-11T18:41:33.157Z,101260.56
2022-10-11T18:44:03.211Z,101265.06
2022-10-11T18:46:31.770Z,101258.38
2022-10-11T18:49:01.893Z,101259.69
2022-10-11T18:51:33.883Z,101255.22
2022-10-11T18:54:03.102Z,101264.94
2022-10-11T18:56:33.259Z,101258.84
2022-10-11T18:59:01.710Z,101263.75
2022-10-11T19:01:31.831Z,101270.44
2022-10-11T19:04:01.577Z,101268.88
2022-10-11T19:06:34.271Z,101274.72
2022-10-11T19:09:05.418Z,101269.38
2022-10-11T19:11:33.991Z,101266.13
2022-10-11T19:14:06.509Z,101273.06
2022-10-11T19:16:37.690Z,101263.88
2022-10-11T19:19:06.761Z,101276.25
2022-10-11T19:21:36.638Z,101272.06
2022-10-11T19:24:05.324Z,101273.38
2022-10-11T19:26:35.521Z,101269.50
2022-10-11T19:29:06.174Z,101268.91
2022-10-11T19:31:36.611Z,101273.44
2022-10-11T19:34:04.903Z,101268.63
2022-10-11T19:36:36.633Z,101268.50
2022-10-11T19:39:07.554Z,101265.69
2022-10-11T19:41:35.648Z,101273.75
2022-10-11T19:44:03.713Z,101264.00
2022-10-11T19:46:50.435Z,101276.38
2022-10-11T19:49:22.767Z,101274.00
2022-10-11T19:51:51.328Z,101272.31
2022-10-11T19:54:20.741Z,101272.81
2022-10-11T19:56:49.098Z,101271.88
2022-10-11T19:59:17.432Z,101270.91
2022-10-11T20:01:51.028Z,101272.09
2022-10-11T20:04:50.631Z,101273.16
2022-10-11T20:07:08.213Z,101272.31
2022-10-11T20:09:38.032Z,101270.19
2022-10-11T20:12:06.459Z,101270.69
2022-10-11T20:14:34.399Z,101272.13
2022-10-11T20:17:02.403Z,101278.84
2022-10-11T20:19:31.634Z,101277.16
2022-10-11T20:22:00.471Z,101270.25
2022-10-11T20:24:32.955Z,101273.81
2022-10-11T20:27:04.121Z,101272.84
2022-10-11T20:29:32.275Z,101275.69
2022-10-11T20:32:00.333Z,101247.66
2022-10-11T20:34:28.929Z,101268.81
2022-10-11T20:36:56.969Z,101271.66
2022-10-11T20:39:25.526Z,101269.25
2022-10-11T20:41:53.606Z,101264.22
2022-10-11T20:44:23.188Z,101263.38
2022-10-11T20:46:51.381Z,101266.50
2022-10-11T20:49:20.864Z,101266.50
2022-10-11T20:51:48.976Z,101265.47
2022-10-11T20:54:17.293Z,101268.81
2022-10-11T20:56:45.413Z,101268.28
2022-10-11T20:59:13.427Z,101267.34
2022-10-11T21:01:43.194Z,101267.97
2022-10-11T21:04:17.881Z,101261.78
2022-10-11T21:06:45.834Z,101269.50
2022-10-11T21:09:16.412Z,101269.75
2022-10-11T21:11:45.000Z,101273.91
2022-10-11T21:14:13.102Z,101271.44
2022-10-11T21:16:42.882Z,101266.25
2022-10-11T21:19:14.803Z,101273.53
2022-10-11T21:21:43.253Z,101266.28
2022-10-11T21:24:11.394Z,101269.97
2022-10-11T21:26:39.427Z,101269.47
2022-10-11T21:29:08.607Z,101274.78
2022-10-11T21:31:36.718Z,101260.84
2022-10-11T21:34:07.516Z,101264.66
2022-10-11T21:36:35.950Z,101269.41
2022-10-11T21:39:04.450Z,101273.81
2022-10-11T21:41:34.122Z,101269.63
2022-10-11T21:44:02.669Z,101270.94
2022-10-11T21:49:22.195Z,101263.16
2022-10-11T21:51:50.296Z,101273.41
2022-10-11T21:54:18.701Z,101267.09
2022-10-11T21:56:46.770Z,101270.34
2022-10-11T21:59:15.302Z,101262.88
2022-10-11T22:01:44.205Z,101265.19
2022-10-11T22:04:13.082Z,101271.03
2022-10-11T22:06:42.441Z,101267.44
2022-10-11T22:09:10.764Z,101267.91
2022-10-11T22:11:39.232Z,101266.84
2022-10-11T22:14:07.902Z,101263.63
2022-10-11T22:16:36.352Z,101266.69
2022-10-11T22:19:05.078Z,101268.22
2022-10-11T22:21:33.247Z,101269.81
2022-10-11T22:24:03.058Z,101272.41
2022-10-11T22:26:32.094Z,101269.59
2022-10-11T22:29:00.699Z,101275.56
2022-10-11T22:31:29.818Z,101270.31
2022-10-11T22:33:59.447Z,101276.41
2022-10-11T22:36:27.946Z,101272.69
2022-10-11T22:38:56.046Z,101281.28
2022-10-11T22:41:25.578Z,101276.88
2022-10-11T22:43:53.672Z,101284.44
2022-10-11T22:46:21.715Z,101288.72
2022-10-11T22:48:49.805Z,101280.97
2022-10-11T22:51:18.017Z,101289.88
2022-10-11T22:53:45.970Z,101277.84
2022-10-11T22:56:14.205Z,101281.28
2022-10-11T22:58:43.499Z,101284.84
2022-10-11T23:01:13.897Z,101289.25
2022-10-11T23:03:42.263Z,101286.75
2022-10-11T23:06:10.747Z,101285.31
2022-10-11T23:08:39.082Z,101284.13
2022-10-11T23:11:08.266Z,101294.13
2022-10-11T23:13:36.549Z,101298.41
2022-10-11T23:16:09.925Z,101300.81
2022-10-11T23:18:38.778Z,101285.31
2022-10-11T23:21:07.705Z,101303.31
2022-10-11T23:23:35.855Z,101294.13
2022-10-11T23:26:05.602Z,101302.19
2022-10-11T23:28:34.009Z,101300.34
2022-10-11T23:31:02.313Z,101303.91
2022-10-11T23:33:32.223Z,101308.09
2022-10-11T23:36:00.205Z,101298.75
2022-10-11T23:38:28.265Z,101298.81
2022-10-11T23:40:56.277Z,101306.22
2022-10-11T23:43:24.503Z,101309.69
2022-10-11T23:45:54.211Z,101306.34
2022-10-11T23:48:22.273Z,101305.38
2022-10-11T23:50:51.815Z,101310.72
2022-10-11T23:53:19.882Z,101314.31
2022-10-11T23:55:47.946Z,101307.59
2022-10-11T23:58:16.055Z,101307.41
